Ascutney, Vermont
Current Conditions -  °F | °C
As of 4:54 PM on Wednesday 28 Jan 2015 (Local Time) from KVSF Reporting Station
Clear Clear  
Wind Chill:   Ceiling: Unl
Heat Index: 19°   Visibility: 10mi
Dew Point: -3°   Wind: 12mph
Humidity: 38%   Direction: 290°WNW
Pressure: 30.11"   Gusts: NA
Location:  43.41°N, 72.41°W
Report Text: KVSF 282154Z AUTO 29010KT 10SM CLR M07/M19 A3011 RMK AO2 SLP209 T10721194 TSNO
Loading
Personal Weather Stations






























Interactive Weather Map New forecast layout! Learn more

10-Day Weather Forecast

Advertisements
Track Severe Weather on mobile